createdAt,value
2023-05-07T00:01:22.557Z,8.37
2023-05-07T00:03:53.429Z,8.35
2023-05-07T00:06:24.441Z,8.33
2023-05-07T00:08:55.124Z,8.31
2023-05-07T00:11:25.713Z,8.30
2023-05-07T00:13:56.574Z,8.26
2023-05-07T00:16:27.120Z,8.23
2023-05-07T00:18:57.678Z,8.18
2023-05-07T00:21:28.828Z,8.18
2023-05-07T00:23:59.527Z,8.17
2023-05-07T00:26:29.972Z,8.15
2023-05-07T00:29:00.949Z,8.14
2023-05-07T00:31:31.746Z,8.12
2023-05-07T00:34:02.365Z,8.07
2023-05-07T00:36:32.866Z,8.04
2023-05-07T00:39:04.810Z,8.02
2023-05-07T00:41:35.788Z,7.98
2023-05-07T00:44:06.345Z,7.95
2023-05-07T00:46:37.364Z,7.92
2023-05-07T00:49:08.847Z,7.89
2023-05-07T00:51:39.459Z,7.85
2023-05-07T00:54:10.036Z,7.81
2023-05-07T00:56:40.960Z,7.81
2023-05-07T00:59:12.691Z,7.81
2023-05-07T01:01:43.295Z,7.78
2023-05-07T01:04:13.882Z,7.76
2023-05-07T01:06:46.614Z,7.73
2023-05-07T01:09:18.676Z,7.70
2023-05-07T01:11:49.990Z,7.67
2023-05-07T01:14:21.620Z,7.64
2023-05-07T01:16:52.850Z,7.63
2023-05-07T01:19:24.305Z,7.62
2023-05-07T01:21:57.279Z,7.60
2023-05-07T01:24:28.077Z,7.58
2023-05-07T01:26:58.686Z,7.56
2023-05-07T01:29:29.501Z,7.57
2023-05-07T01:32:01.658Z,7.55
2023-05-07T01:34:33.641Z,7.55
2023-05-07T01:37:04.506Z,7.55
2023-05-07T01:39:35.505Z,7.54
2023-05-07T01:42:06.436Z,7.52
2023-05-07T01:44:36.960Z,7.51
2023-05-07T01:47:08.381Z,7.49
2023-05-07T01:49:39.102Z,7.47
2023-05-07T01:52:10.168Z,7.44
2023-05-07T01:54:40.749Z,7.40
2023-05-07T01:57:11.384Z,7.36
2023-05-07T01:59:42.448Z,7.32
2023-05-07T02:02:13.134Z,7.30
2023-05-07T02:04:44.901Z,7.27
2023-05-07T02:07:16.483Z,7.25
2023-05-07T02:09:47.247Z,7.22
2023-05-07T02:12:18.025Z,7.20
2023-05-07T02:14:48.625Z,7.18
2023-05-07T02:17:19.271Z,7.15
2023-05-07T02:19:49.847Z,7.11
2023-05-07T02:22:20.387Z,7.09
2023-05-07T02:24:51.264Z,7.09
2023-05-07T02:27:21.800Z,7.08
2023-05-07T02:29:52.519Z,7.04
2023-05-07T02:32:24.356Z,6.99
2023-05-07T02:34:54.984Z,6.97
2023-05-07T02:37:25.658Z,6.95
2023-05-07T02:39:56.484Z,6.93
2023-05-07T02:42:27.096Z,6.92
2023-05-07T02:44:57.662Z,6.90
2023-05-07T02:47:29.857Z,6.89
2023-05-07T02:50:01.260Z,6.89
2023-05-07T02:52:31.825Z,6.87
2023-05-07T02:55:03.747Z,6.83
2023-05-07T02:57:34.295Z,6.81
2023-05-07T03:00:13.983Z,6.76
2023-05-07T03:02:46.625Z,6.71
2023-05-07T03:05:18.146Z,6.69
2023-05-07T03:07:48.689Z,6.70
2023-05-07T03:10:19.707Z,6.71
2023-05-07T03:12:50.345Z,6.71
2023-05-07T03:15:21.525Z,6.69
2023-05-07T03:17:52.379Z,6.67
2023-05-07T03:20:23.808Z,6.65
2023-05-07T03:22:54.630Z,6.64
2023-05-07T03:25:25.264Z,6.64
2023-05-07T03:27:55.837Z,6.65
2023-05-07T03:30:28.147Z,6.63
2023-05-07T03:32:58.731Z,6.60
2023-05-07T03:35:29.357Z,6.61
2023-05-07T03:38:00.185Z,6.63
2023-05-07T03:40:31.405Z,6.65
2023-05-07T03:43:03.197Z,6.67
2023-05-07T03:45:34.522Z,6.67
2023-05-07T03:48:12.483Z,6.69
2023-05-07T03:50:43.151Z,6.68
2023-05-07T03:53:13.969Z,6.66
2023-05-07T03:55:44.834Z,6.66
2023-05-07T03:58:16.569Z,6.67
2023-05-07T04:00:47.315Z,6.67
2023-05-07T04:03:25.188Z,6.68
2023-05-07T04:05:56.021Z,6.69
2023-05-07T04:08:27.175Z,6.69
2023-05-07T04:10:59.031Z,6.69
2023-05-07T04:13:31.865Z,6.70
2023-05-07T04:16:03.377Z,6.72
2023-05-07T04:18:34.054Z,6.73
2023-05-07T04:21:04.708Z,6.74
2023-05-07T04:23:35.458Z,6.75
2023-05-07T04:26:08.125Z,6.77
2023-05-07T04:28:44.076Z,6.79
2023-05-07T04:31:14.877Z,6.82
2023-05-07T04:33:45.958Z,6.85
2023-05-07T04:36:17.237Z,6.89
2023-05-07T04:38:52.928Z,6.93
2023-05-07T04:41:23.725Z,6.98
2023-05-07T04:43:54.330Z,7.04
2023-05-07T04:46:26.215Z,7.12
2023-05-07T04:48:57.644Z,7.18
2023-05-07T04:51:29.062Z,7.23
2023-05-07T04:53:59.982Z,7.29
2023-05-07T04:56:32.496Z,7.35
2023-05-07T04:59:03.525Z,7.42
2023-05-07T05:01:34.269Z,7.51
2023-05-07T05:04:05.058Z,7.60
2023-05-07T05:06:35.644Z,7.69
2023-05-07T05:09:07.064Z,7.78
2023-05-07T05:11:37.794Z,7.90
2023-05-07T05:14:08.767Z,8.03
2023-05-07T05:16:39.420Z,8.15
2023-05-07T05:19:10.047Z,8.27
2023-05-07T05:21:41.335Z,8.41
2023-05-07T05:24:13.106Z,8.55
2023-05-07T05:26:43.790Z,8.68
2023-05-07T05:29:14.792Z,8.82
2023-05-07T05:31:46.174Z,8.96
2023-05-07T05:34:16.728Z,9.09
2023-05-07T05:36:47.296Z,9.19
2023-05-07T05:39:18.345Z,9.31
2023-05-07T05:41:49.046Z,9.42
2023-05-07T05:44:20.207Z,9.54
2023-05-07T05:46:51.510Z,9.67
2023-05-07T05:49:22.621Z,9.80
2023-05-07T05:51:53.546Z,9.93
2023-05-07T05:54:25.227Z,10.06
2023-05-07T05:56:56.581Z,10.14
2023-05-07T05:59:27.972Z,10.23
2023-05-07T06:01:58.692Z,10.35
2023-05-07T06:04:29.531Z,10.44
2023-05-07T06:07:00.671Z,10.53
2023-05-07T06:09:31.242Z,10.63
2023-05-07T06:12:01.730Z,10.72
2023-05-07T06:14:33.792Z,10.81
2023-05-07T06:17:04.909Z,10.91
2023-05-07T06:19:36.134Z,11.01
2023-05-07T06:22:07.697Z,11.12
2023-05-07T06:24:38.513Z,11.25
2023-05-07T06:27:09.521Z,11.33
2023-05-07T06:29:40.116Z,11.44
2023-05-07T06:32:16.361Z,11.54
2023-05-07T06:34:47.538Z,11.65
2023-05-07T06:37:19.003Z,11.78
2023-05-07T06:39:59.237Z,11.92
2023-05-07T06:42:30.845Z,12.07
2023-05-07T06:45:03.988Z,12.18
2023-05-07T06:47:35.800Z,12.27
2023-05-07T06:50:06.888Z,12.32
2023-05-07T06:52:37.667Z,12.40
2023-05-07T06:55:10.688Z,12.49
2023-05-07T06:57:41.344Z,12.62
2023-05-07T07:00:13.196Z,12.72
2023-05-07T07:02:51.976Z,12.87
2023-05-07T07:05:24.518Z,12.99
2023-05-07T07:07:55.109Z,13.07
2023-05-07T07:10:26.148Z,13.17
2023-05-07T07:12:57.425Z,13.24
2023-05-07T07:15:28.296Z,13.36
2023-05-07T07:20:45.621Z,13.66
2023-05-07T07:23:17.570Z,13.78
2023-05-07T07:25:48.383Z,13.89
2023-05-07T07:28:19.220Z,13.98
2023-05-07T07:30:50.821Z,14.09
2023-05-07T07:33:21.867Z,14.22
2023-05-07T07:35:52.444Z,14.34
2023-05-07T07:38:23.455Z,14.41
2023-05-07T07:40:54.030Z,14.54
2023-05-07T07:43:24.859Z,14.64
2023-05-07T07:45:55.942Z,14.72
2023-05-07T07:48:26.642Z,14.78
2023-05-07T07:50:57.920Z,14.86
2023-05-07T07:53:28.497Z,14.92
2023-05-07T07:55:59.880Z,14.95
2023-05-07T07:58:32.789Z,15.03
2023-05-07T08:01:04.422Z,15.12
2023-05-07T08:03:35.044Z,15.18
2023-05-07T08:06:06.402Z,15.24
2023-05-07T08:08:37.418Z,15.32
2023-05-07T08:11:08.106Z,15.38
2023-05-07T08:13:40.329Z,15.48
2023-05-07T08:16:11.320Z,15.59
2023-05-07T08:18:41.975Z,15.66
2023-05-07T08:21:12.993Z,15.70
2023-05-07T08:23:43.670Z,15.77
2023-05-07T08:26:14.434Z,15.87
2023-05-07T08:28:45.149Z,15.96
2023-05-07T08:31:15.998Z,16.01
2023-05-07T08:33:48.119Z,16.03
2023-05-07T08:36:20.401Z,16.02
2023-05-07T08:38:51.204Z,16.03
2023-05-07T08:41:22.018Z,15.99
2023-05-07T08:43:53.428Z,15.96
2023-05-07T08:46:24.345Z,16.04
2023-05-07T08:48:57.759Z,16.18
2023-05-07T08:51:28.372Z,16.28
2023-05-07T08:54:00.158Z,16.37
2023-05-07T08:56:33.698Z,16.49
2023-05-07T08:59:04.878Z,16.61
2023-05-07T09:01:37.060Z,16.70
2023-05-07T09:04:08.258Z,16.73
2023-05-07T09:06:43.093Z,16.73
2023-05-07T09:09:16.773Z,16.61
2023-05-07T09:11:47.327Z,16.52
2023-05-07T09:14:18.828Z,16.55
2023-05-07T09:16:49.916Z,16.60
2023-05-07T09:19:24.437Z,16.66
2023-05-07T09:22:02.208Z,16.74
2023-05-07T09:24:38.695Z,16.80
2023-05-07T09:27:11.794Z,16.82
2023-05-07T09:29:42.359Z,16.87
2023-05-07T09:32:13.161Z,16.96
2023-05-07T09:34:44.023Z,16.99
2023-05-07T09:37:15.826Z,16.97
2023-05-07T09:39:47.762Z,17.02
2023-05-07T09:42:25.079Z,17.13
2023-05-07T09:44:56.173Z,17.26
2023-05-07T09:47:34.062Z,17.41
2023-05-07T09:50:08.373Z,17.57
2023-05-07T09:52:40.852Z,17.67
2023-05-07T09:55:13.334Z,17.75
2023-05-07T09:57:44.277Z,17.81
2023-05-07T10:00:16.606Z,17.90
2023-05-07T10:02:54.204Z,18.01
2023-05-07T10:05:34.030Z,18.13
2023-05-07T10:08:05.821Z,18.22
2023-05-07T10:10:37.943Z,18.19
2023-05-07T10:13:12.004Z,18.17
2023-05-07T10:15:45.191Z,18.20
2023-05-07T10:18:16.311Z,18.27
2023-05-07T10:20:49.448Z,18.35
2023-05-07T10:23:25.046Z,18.42
2023-05-07T10:26:01.043Z,18.40
2023-05-07T10:28:36.668Z,18.34
2023-05-07T10:31:12.877Z,18.25
2023-05-07T10:33:47.678Z,18.25
2023-05-07T10:36:19.354Z,18.23
2023-05-07T10:38:50.476Z,18.14
2023-05-07T10:41:22.289Z,18.11
2023-05-07T10:43:53.786Z,18.17
2023-05-07T10:46:28.760Z,18.27
2023-05-07T10:49:22.802Z,18.36
2023-05-07T10:52:15.748Z,18.39
2023-05-07T10:55:11.773Z,18.34
2023-05-07T10:57:42.684Z,18.30
2023-05-07T11:00:46.024Z,18.36
2023-05-07T11:03:23.463Z,18.47
2023-05-07T11:06:14.106Z,18.62
2023-05-07T11:08:58.662Z,18.68
2023-05-07T11:11:52.435Z,18.75
2023-05-07T11:14:46.887Z,18.71
2023-05-07T11:17:21.921Z,18.75
2023-05-07T11:20:01.020Z,18.83
2023-05-07T11:22:49.243Z,18.90
2023-05-07T11:25:29.761Z,19.01
2023-05-07T11:28:11.375Z,19.11
2023-05-07T11:30:46.315Z,19.20
2023-05-07T11:33:21.092Z,19.28
2023-05-07T11:35:52.895Z,19.30
2023-05-07T11:38:24.379Z,19.34
2023-05-07T11:40:55.557Z,19.31
2023-05-07T11:43:26.142Z,19.29
2023-05-07T11:45:56.991Z,19.30
2023-05-07T11:48:27.587Z,19.28
2023-05-07T11:51:03.728Z,19.31
2023-05-07T11:53:39.656Z,19.34
2023-05-07T11:56:11.264Z,19.32
2023-05-07T11:58:42.129Z,19.28
2023-05-07T12:01:14.375Z,19.29
2023-05-07T12:03:46.855Z,19.36
2023-05-07T12:06:18.746Z,19.41
2023-05-07T12:08:49.429Z,19.34
2023-05-07T12:11:27.314Z,19.29
2023-05-07T12:13:59.939Z,19.21
2023-05-07T12:16:31.154Z,19.20
2023-05-07T12:19:02.245Z,19.21
2023-05-07T12:21:32.974Z,19.22
2023-05-07T12:24:03.585Z,19.24
2023-05-07T12:26:34.174Z,19.26
2023-05-07T12:29:05.014Z,19.30
2023-05-07T12:31:35.588Z,19.34
2023-05-07T12:34:06.169Z,19.37
2023-05-07T12:36:40.505Z,19.42
2023-05-07T12:39:11.573Z,19.45
2023-05-07T12:41:57.687Z,19.46
2023-05-07T12:44:31.667Z,19.39
2023-05-07T12:47:03.597Z,19.35
2023-05-07T12:49:38.883Z,19.35
2023-05-07T12:52:09.525Z,19.36
2023-05-07T12:54:40.747Z,19.34
2023-05-07T12:57:12.189Z,19.21
2023-05-07T12:59:43.372Z,19.11
2023-05-07T13:02:14.012Z,19.06
2023-05-07T13:04:45.703Z,19.02
2023-05-07T13:07:16.258Z,19.01
2023-05-07T13:09:46.811Z,19.02
2023-05-07T13:12:17.420Z,19.02
2023-05-07T13:14:48.125Z,18.99
2023-05-07T13:17:19.863Z,18.96
2023-05-07T13:19:51.257Z,18.93
2023-05-07T13:22:21.898Z,18.92
2023-05-07T13:24:52.510Z,18.92
2023-05-07T13:27:23.107Z,18.92
2023-05-07T13:29:53.720Z,18.88
2023-05-07T13:32:24.358Z,18.86
2023-05-07T13:34:54.896Z,18.80
2023-05-07T13:37:25.513Z,18.68
2023-05-07T13:39:56.110Z,18.59
2023-05-07T13:42:26.656Z,18.51
2023-05-07T13:44:57.791Z,18.46
2023-05-07T13:47:28.411Z,18.45
2023-05-07T13:49:59.052Z,18.43
2023-05-07T13:52:29.635Z,18.42
2023-05-07T13:55:00.221Z,18.36
2023-05-07T13:57:30.805Z,18.33
2023-05-07T14:00:01.522Z,18.32
2023-05-07T14:02:32.252Z,18.33
2023-05-07T14:05:02.960Z,18.34
2023-05-07T14:07:33.499Z,18.34
2023-05-07T14:10:04.163Z,18.31
2023-05-07T14:12:35.807Z,18.24
2023-05-07T14:15:06.960Z,18.18
2023-05-07T14:17:37.612Z,18.12
2023-05-07T14:20:11.008Z,18.07
2023-05-07T14:22:41.770Z,18.05
2023-05-07T14:25:12.544Z,18.02
2023-05-07T14:27:43.084Z,17.97
2023-05-07T14:30:14.363Z,17.93
2023-05-07T14:32:44.984Z,17.89
2023-05-07T14:35:15.734Z,17.85
2023-05-07T14:37:46.426Z,17.83
2023-05-07T14:40:17.048Z,17.78
2023-05-07T14:42:47.610Z,17.70
2023-05-07T14:45:18.167Z,17.63
2023-05-07T14:47:48.697Z,17.58
2023-05-07T14:50:19.287Z,17.55
2023-05-07T14:52:49.847Z,17.53
2023-05-07T14:55:20.538Z,17.51
2023-05-07T14:57:51.230Z,17.47
2023-05-07T15:00:23.575Z,17.45
2023-05-07T15:02:54.328Z,17.44
2023-05-07T15:05:25.213Z,17.41
2023-05-07T15:07:57.455Z,17.37
2023-05-07T15:10:28.329Z,17.31
2023-05-07T15:12:58.886Z,17.29
2023-05-07T15:15:29.524Z,17.26
2023-05-07T15:18:01.980Z,17.22
2023-05-07T15:20:32.883Z,17.18
2023-05-07T15:23:03.863Z,17.16
2023-05-07T15:25:35.126Z,17.13
2023-05-07T15:28:06.599Z,17.09
2023-05-07T15:30:37.275Z,17.06
2023-05-07T15:33:07.980Z,17.04
2023-05-07T15:35:38.743Z,17.03
2023-05-07T15:38:09.729Z,17.00
2023-05-07T15:40:42.939Z,16.96
2023-05-07T15:43:13.887Z,16.92
2023-05-07T15:45:45.401Z,16.89
2023-05-07T15:48:15.955Z,16.83
2023-05-07T15:50:46.802Z,16.78
2023-05-07T15:53:17.315Z,16.75
2023-05-07T15:55:49.514Z,16.69
2023-05-07T15:58:21.324Z,16.66
2023-05-07T16:00:52.086Z,16.63
2023-05-07T16:03:23.400Z,16.60
2023-05-07T16:05:54.181Z,16.57
2023-05-07T16:08:24.996Z,16.52
2023-05-07T16:10:55.784Z,16.47
2023-05-07T16:13:26.479Z,16.42
2023-05-07T16:15:59.301Z,16.39
2023-05-07T16:18:30.204Z,16.35
2023-05-07T16:21:01.488Z,16.30
2023-05-07T16:23:32.550Z,16.24
2023-05-07T16:26:04.830Z,16.18
2023-05-07T16:28:35.390Z,16.12
2023-05-07T16:31:06.258Z,16.08
2023-05-07T16:33:37.113Z,16.04
2023-05-07T16:36:08.183Z,16.00
2023-05-07T16:38:38.773Z,15.95
2023-05-07T16:41:09.358Z,15.90
2023-05-07T16:43:39.929Z,15.83
2023-05-07T16:46:10.578Z,15.77
2023-05-07T16:48:41.326Z,15.73
2023-05-07T16:51:11.907Z,15.69
2023-05-07T16:53:42.481Z,15.65
2023-05-07T16:56:13.088Z,15.60
2023-05-07T16:58:43.569Z,15.56
2023-05-07T17:01:15.439Z,15.52
2023-05-07T17:03:46.476Z,15.49
2023-05-07T17:06:17.130Z,15.45
2023-05-07T17:08:47.648Z,15.40
2023-05-07T17:11:18.285Z,15.35
2023-05-07T17:13:48.926Z,15.31
2023-05-07T17:16:19.626Z,15.26
2023-05-07T17:18:50.328Z,15.22
2023-05-07T17:21:20.929Z,15.18
2023-05-07T17:23:51.534Z,15.15
2023-05-07T17:26:22.464Z,15.11
2023-05-07T17:28:53.023Z,15.06
2023-05-07T17:31:24.303Z,15.03
2023-05-07T17:33:55.431Z,15.00
2023-05-07T17:36:26.088Z,14.97
2023-05-07T17:38:56.686Z,14.94
2023-05-07T17:41:27.325Z,14.90
2023-05-07T17:43:57.923Z,14.87
2023-05-07T17:46:28.577Z,14.82
2023-05-07T17:48:59.089Z,14.80
2023-05-07T17:51:36.073Z,14.77
2023-05-07T17:54:13.045Z,14.72
2023-05-07T17:56:43.858Z,14.68
2023-05-07T17:59:14.450Z,14.64
2023-05-07T18:01:45.366Z,14.59
2023-05-07T18:04:15.995Z,14.56
2023-05-07T18:06:46.543Z,14.52
2023-05-07T18:09:17.110Z,14.47
2023-05-07T18:11:47.666Z,14.43
2023-05-07T18:14:18.209Z,14.39
2023-05-07T18:16:48.783Z,14.32
2023-05-07T18:19:19.274Z,14.27
2023-05-07T18:21:49.845Z,14.20
2023-05-07T18:24:20.814Z,14.15
2023-05-07T18:26:51.382Z,14.09
2023-05-07T18:29:21.960Z,14.03
2023-05-07T18:31:52.842Z,13.97
2023-05-07T18:34:23.419Z,13.91
2023-05-07T18:36:53.938Z,13.85
2023-05-07T18:39:24.524Z,13.81
2023-05-07T18:41:55.266Z,13.74
2023-05-07T18:44:25.879Z,13.68
2023-05-07T18:46:59.568Z,13.62
2023-05-07T18:49:30.299Z,13.55
2023-05-07T18:52:01.058Z,13.48
2023-05-07T18:54:31.624Z,13.42
2023-05-07T18:57:02.206Z,13.35
2023-05-07T18:59:32.836Z,13.31
2023-05-07T19:02:03.728Z,13.23
2023-05-07T19:04:34.337Z,13.18
2023-05-07T19:07:04.891Z,13.13
2023-05-07T19:09:35.442Z,13.07
2023-05-07T19:12:06.769Z,13.03
2023-05-07T19:14:37.588Z,12.99
2023-05-07T19:17:08.149Z,12.93
2023-05-07T19:19:38.769Z,12.87
2023-05-07T19:22:09.403Z,12.81
2023-05-07T19:24:41.020Z,12.77
2023-05-07T19:27:11.511Z,12.74
2023-05-07T19:29:44.342Z,12.69
2023-05-07T19:32:15.044Z,12.62
2023-05-07T19:34:45.649Z,12.55
2023-05-07T19:37:16.353Z,12.50
2023-05-07T19:39:47.351Z,12.46
2023-05-07T19:42:18.005Z,12.42
2023-05-07T19:44:48.554Z,12.37
2023-05-07T19:47:19.079Z,12.32
2023-05-07T19:49:50.496Z,12.30
2023-05-07T19:52:21.221Z,12.28
2023-05-07T19:54:51.761Z,12.27
2023-05-07T19:57:22.262Z,12.21
2023-05-07T19:59:52.720Z,12.17
2023-05-07T20:02:23.416Z,12.15
2023-05-07T20:04:55.262Z,12.11
2023-05-07T20:07:25.876Z,12.07
2023-05-07T20:09:56.474Z,12.04
2023-05-07T20:12:27.038Z,12.01
2023-05-07T20:14:57.605Z,11.98
2023-05-07T20:17:28.244Z,11.94
2023-05-07T20:19:58.909Z,11.86
2023-05-07T20:22:32.337Z,11.81
2023-05-07T20:25:05.899Z,11.80
2023-05-07T20:27:39.762Z,11.79
2023-05-07T20:30:11.766Z,11.74
2023-05-07T20:32:43.606Z,11.70
2023-05-07T20:35:14.265Z,11.65
2023-05-07T20:37:44.721Z,11.59
2023-05-07T20:40:15.597Z,11.56
2023-05-07T20:42:46.306Z,11.54
2023-05-07T20:45:17.259Z,11.51
2023-05-07T20:47:48.009Z,11.49
2023-05-07T20:50:18.571Z,11.43
2023-05-07T20:52:49.128Z,11.37
2023-05-07T20:55:19.713Z,11.33
2023-05-07T20:57:50.330Z,11.28
2023-05-07T21:00:21.304Z,11.25
2023-05-07T21:02:51.962Z,11.21
2023-05-07T21:05:22.830Z,11.19
2023-05-07T21:07:53.402Z,11.16
2023-05-07T21:10:23.955Z,11.14
2023-05-07T21:12:54.589Z,11.10
2023-05-07T21:15:25.867Z,11.06
2023-05-07T21:17:56.430Z,11.04
2023-05-07T21:20:27.110Z,11.02
2023-05-07T21:22:57.738Z,10.96
2023-05-07T21:25:28.325Z,10.90
2023-05-07T21:27:58.974Z,10.87
2023-05-07T21:30:29.583Z,10.84
2023-05-07T21:33:00.173Z,10.82
2023-05-07T21:35:30.783Z,10.82
2023-05-07T21:38:02.735Z,10.80
2023-05-07T21:40:33.337Z,10.73
2023-05-07T21:43:03.904Z,10.67
2023-05-07T21:45:34.430Z,10.66
2023-05-07T21:48:05.124Z,10.63
2023-05-07T21:50:35.931Z,10.57
2023-05-07T21:53:06.552Z,10.51
2023-05-07T21:55:37.023Z,10.48
2023-05-07T21:58:07.568Z,10.44
2023-05-07T22:00:38.443Z,10.40
2023-05-07T22:03:09.112Z,10.38
2023-05-07T22:05:39.935Z,10.39
2023-05-07T22:08:10.863Z,10.37
2023-05-07T22:10:41.409Z,10.35
2023-05-07T22:13:12.336Z,10.32
2023-05-07T22:15:56.098Z,10.27
2023-05-07T22:18:28.370Z,10.24
2023-05-07T22:20:58.929Z,10.23
2023-05-07T22:23:29.516Z,10.22
2023-05-07T22:26:00.118Z,10.19
2023-05-07T22:28:30.620Z,10.19
2023-05-07T22:31:01.133Z,10.17
2023-05-07T22:33:31.884Z,10.12
2023-05-07T22:36:02.433Z,10.08
2023-05-07T22:38:33.688Z,10.05
2023-05-07T22:41:04.552Z,10.03
2023-05-07T22:43:35.315Z,9.99
2023-05-07T22:46:06.032Z,9.95
2023-05-07T22:48:36.678Z,9.95
2023-05-07T22:51:07.248Z,9.95
2023-05-07T22:53:37.768Z,9.92
2023-05-07T22:56:10.291Z,9.90
2023-05-07T22:58:40.856Z,9.86
2023-05-07T23:01:14.952Z,9.83
2023-05-07T23:03:45.572Z,9.80
2023-05-07T23:06:16.136Z,9.75
2023-05-07T23:08:46.688Z,9.73
2023-05-07T23:11:17.213Z,9.70
2023-05-07T23:13:47.787Z,9.66
2023-05-07T23:16:18.354Z,9.63
2023-05-07T23:18:49.330Z,9.59
2023-05-07T23:21:19.914Z,9.56
2023-05-07T23:23:50.808Z,9.52
2023-05-07T23:26:21.335Z,9.45
2023-05-07T23:28:51.961Z,9.41
2023-05-07T23:31:22.529Z,9.40
2023-05-07T23:33:53.091Z,9.37
2023-05-07T23:36:23.796Z,9.35
2023-05-07T23:38:54.344Z,9.33
2023-05-07T23:41:24.921Z,9.29
2023-05-07T23:43:55.494Z,9.21
2023-05-07T23:46:27.020Z,9.17
2023-05-07T23:48:57.619Z,9.16
2023-05-07T23:51:28.163Z,9.13
2023-05-07T23:53:58.686Z,9.11
2023-05-07T23:56:29.201Z,9.08
2023-05-07T23:58:59.813Z,9.06
